sensor_id;sensor_type;location;lat;lon;timestamp;P1;durP1;ratioP1;P2;durP2;ratioP2
55218;SDS011;65463;43.864;20.136;2024-01-11T00:01:47;58.85;;;24.60;;
55218;SDS011;65463;43.864;20.136;2024-01-11T00:04:14;64.55;;;27.50;;
55218;SDS011;65463;43.864;20.136;2024-01-11T00:06:43;58.70;;;26.15;;
55218;SDS011;65463;43.864;20.136;2024-01-11T00:09:10;56.42;;;26.50;;
55218;SDS011;65463;43.864;20.136;2024-01-11T00:11:36;61.33;;;27.40;;
55218;SDS011;65463;43.864;20.136;2024-01-11T00:14:05;63.45;;;27.40;;
55218;SDS011;65463;43.864;20.136;2024-01-11T00:16:31;60.20;;;25.98;;
55218;SDS011;65463;43.864;20.136;2024-01-11T00:18:57;65.25;;;30.20;;
55218;SDS011;65463;43.864;20.136;2024-01-11T00:21:24;60.00;;;27.55;;
55218;SDS011;65463;43.864;20.136;2024-01-11T00:23:50;61.00;;;27.85;;
55218;SDS011;65463;43.864;20.136;2024-01-11T00:26:16;65.53;;;29.35;;
55218;SDS011;65463;43.864;20.136;2024-01-11T00:28:42;67.30;;;28.38;;
55218;SDS011;65463;43.864;20.136;2024-01-11T00:31:11;64.45;;;29.50;;
55218;SDS011;65463;43.864;20.136;2024-01-11T00:33:37;67.95;;;31.17;;
55218;SDS011;65463;43.864;20.136;2024-01-11T00:36:06;72.22;;;31.88;;
55218;SDS011;65463;43.864;20.136;2024-01-11T00:38:32;70.82;;;31.55;;
55218;SDS011;65463;43.864;20.136;2024-01-11T00:40:58;70.78;;;32.05;;
55218;SDS011;65463;43.864;20.136;2024-01-11T00:43:25;71.95;;;32.17;;
55218;SDS011;65463;43.864;20.136;2024-01-11T00:45:56;77.15;;;33.05;;
55218;SDS011;65463;43.864;20.136;2024-01-11T00:48:22;87.57;;;36.80;;
55218;SDS011;65463;43.864;20.136;2024-01-11T00:50:51;80.15;;;34.72;;
55218;SDS011;65463;43.864;20.136;2024-01-11T00:53:17;80.82;;;36.90;;
55218;SDS011;65463;43.864;20.136;2024-01-11T00:55:43;81.15;;;35.92;;
55218;SDS011;65463;43.864;20.136;2024-01-11T00:58:10;82.00;;;35.25;;
55218;SDS011;65463;43.864;20.136;2024-01-11T01:00:36;76.60;;;35.28;;
55218;SDS011;65463;43.864;20.136;2024-01-11T01:03:03;82.70;;;34.70;;
55218;SDS011;65463;43.864;20.136;2024-01-11T01:05:36;75.75;;;34.53;;
55218;SDS011;65463;43.864;20.136;2024-01-11T01:08:02;85.40;;;35.33;;
55218;SDS011;65463;43.864;20.136;2024-01-11T01:10:29;79.50;;;33.83;;
55218;SDS011;65463;43.864;20.136;2024-01-11T01:12:55;76.07;;;33.55;;
55218;SDS011;65463;43.864;20.136;2024-01-11T01:15:21;76.03;;;32.72;;
55218;SDS011;65463;43.864;20.136;2024-01-11T01:17:50;68.63;;;30.02;;
55218;SDS011;65463;43.864;20.136;2024-01-11T01:20:18;73.88;;;32.72;;
55218;SDS011;65463;43.864;20.136;2024-01-11T01:22:44;75.15;;;31.75;;
55218;SDS011;65463;43.864;20.136;2024-01-11T01:25:11;71.15;;;31.27;;
55218;SDS011;65463;43.864;20.136;2024-01-11T01:27:37;69.97;;;30.67;;
55218;SDS011;65463;43.864;20.136;2024-01-11T01:30:03;69.88;;;30.10;;
55218;SDS011;65463;43.864;20.136;2024-01-11T01:32:29;67.18;;;28.45;;
55218;SDS011;65463;43.864;20.136;2024-01-11T01:34:55;66.22;;;28.98;;
55218;SDS011;65463;43.864;20.136;2024-01-11T01:37:22;64.25;;;28.48;;
55218;SDS011;65463;43.864;20.136;2024-01-11T01:39:51;62.33;;;26.98;;
55218;SDS011;65463;43.864;20.136;2024-01-11T01:42:17;55.50;;;25.85;;
55218;SDS011;65463;43.864;20.136;2024-01-11T01:44:46;58.70;;;26.40;;
55218;SDS011;65463;43.864;20.136;2024-01-11T01:47:12;56.40;;;24.67;;
55218;SDS011;65463;43.864;20.136;2024-01-11T01:49:38;59.03;;;27.45;;
55218;SDS011;65463;43.864;20.136;2024-01-11T01:52:07;58.55;;;25.95;;
55218;SDS011;65463;43.864;20.136;2024-01-11T01:54:34;64.85;;;27.15;;
55218;SDS011;65463;43.864;20.136;2024-01-11T01:57:00;61.08;;;27.30;;
55218;SDS011;65463;43.864;20.136;2024-01-11T01:59:30;61.45;;;27.33;;
55218;SDS011;65463;43.864;20.136;2024-01-11T02:01:59;58.47;;;26.87;;
55218;SDS011;65463;43.864;20.136;2024-01-11T02:04:26;60.05;;;27.02;;
55218;SDS011;65463;43.864;20.136;2024-01-11T02:06:55;61.53;;;26.38;;
55218;SDS011;65463;43.864;20.136;2024-01-11T02:09:21;65.40;;;28.98;;
55218;SDS011;65463;43.864;20.136;2024-01-11T02:11:48;65.47;;;28.30;;
55218;SDS011;65463;43.864;20.136;2024-01-11T02:14:15;64.80;;;28.40;;
55218;SDS011;65463;43.864;20.136;2024-01-11T02:16:41;58.47;;;26.60;;
55218;SDS011;65463;43.864;20.136;2024-01-11T02:19:07;62.50;;;27.88;;
55218;SDS011;65463;43.864;20.136;2024-01-11T02:21:34;61.50;;;27.15;;
55218;SDS011;65463;43.864;20.136;2024-01-11T02:24:06;62.10;;;27.63;;
55218;SDS011;65463;43.864;20.136;2024-01-11T02:26:35;63.67;;;27.42;;
55218;SDS011;65463;43.864;20.136;2024-01-11T02:29:06;64.05;;;27.25;;
55218;SDS011;65463;43.864;20.136;2024-01-11T02:31:32;60.50;;;27.60;;
55218;SDS011;65463;43.864;20.136;2024-01-11T02:33:59;61.90;;;27.17;;
55218;SDS011;65463;43.864;20.136;2024-01-11T02:36:25;61.83;;;27.55;;
55218;SDS011;65463;43.864;20.136;2024-01-11T02:38:51;69.15;;;29.23;;
55218;SDS011;65463;43.864;20.136;2024-01-11T02:41:19;66.35;;;28.77;;
55218;SDS011;65463;43.864;20.136;2024-01-11T02:43:46;57.95;;;26.42;;
55218;SDS011;65463;43.864;20.136;2024-01-11T02:46:14;61.28;;;27.63;;
55218;SDS011;65463;43.864;20.136;2024-01-11T02:48:40;63.50;;;26.88;;
55218;SDS011;65463;43.864;20.136;2024-01-11T02:51:07;66.38;;;28.90;;
55218;SDS011;65463;43.864;20.136;2024-01-11T02:53:33;62.70;;;28.23;;
55218;SDS011;65463;43.864;20.136;2024-01-11T02:56:02;61.08;;;28.05;;
55218;SDS011;65463;43.864;20.136;2024-01-11T02:58:28;59.17;;;27.17;;
55218;SDS011;65463;43.864;20.136;2024-01-11T03:00:55;61.33;;;27.65;;
55218;SDS011;65463;43.864;20.136;2024-01-11T03:03:21;67.32;;;28.08;;
55218;SDS011;65463;43.864;20.136;2024-01-11T03:05:47;60.90;;;28.67;;
55218;SDS011;65463;43.864;20.136;2024-01-11T03:08:13;60.80;;;27.20;;
55218;SDS011;65463;43.864;20.136;2024-01-11T03:10:39;61.20;;;27.58;;
55218;SDS011;65463;43.864;20.136;2024-01-11T03:13:08;64.20;;;28.83;;
55218;SDS011;65463;43.864;20.136;2024-01-11T03:15:38;56.90;;;25.42;;
55218;SDS011;65463;43.864;20.136;2024-01-11T03:18:04;57.38;;;26.10;;
55218;SDS011;65463;43.864;20.136;2024-01-11T03:20:30;57.50;;;25.08;;
55218;SDS011;65463;43.864;20.136;2024-01-11T03:22:56;58.35;;;26.15;;
55218;SDS011;65463;43.864;20.136;2024-01-11T03:25:22;57.10;;;24.70;;
55218;SDS011;65463;43.864;20.136;2024-01-11T03:27:51;58.72;;;25.08;;
55218;SDS011;65463;43.864;20.136;2024-01-11T03:30:17;56.92;;;25.77;;
55218;SDS011;65463;43.864;20.136;2024-01-11T03:32:43;57.35;;;25.20;;
55218;SDS011;65463;43.864;20.136;2024-01-11T03:35:10;58.90;;;25.10;;
55218;SDS011;65463;43.864;20.136;2024-01-11T03:37:36;56.80;;;23.73;;
55218;SDS011;65463;43.864;20.136;2024-01-11T03:40:02;57.22;;;24.83;;
55218;SDS011;65463;43.864;20.136;2024-01-11T03:42:34;57.75;;;26.38;;
55218;SDS011;65463;43.864;20.136;2024-01-11T03:45:00;52.53;;;24.10;;
55218;SDS011;65463;43.864;20.136;2024-01-11T03:47:29;55.00;;;23.02;;
55218;SDS011;65463;43.864;20.136;2024-01-11T03:49:55;57.03;;;23.23;;
55218;SDS011;65463;43.864;20.136;2024-01-11T03:52:22;54.72;;;23.70;;
55218;SDS011;65463;43.864;20.136;2024-01-11T03:54:48;53.70;;;22.65;;
55218;SDS011;65463;43.864;20.136;2024-01-11T03:57:15;55.20;;;23.83;;
55218;SDS011;65463;43.864;20.136;2024-01-11T03:59:42;54.08;;;23.48;;
55218;SDS011;65463;43.864;20.136;2024-01-11T04:02:08;55.35;;;22.95;;
55218;SDS011;65463;43.864;20.136;2024-01-11T04:04:37;50.67;;;22.48;;
55218;SDS011;65463;43.864;20.136;2024-01-11T04:07:03;47.67;;;21.45;;
55218;SDS011;65463;43.864;20.136;2024-01-11T04:09:30;49.45;;;22.40;;
55218;SDS011;65463;43.864;20.136;2024-01-11T04:11:58;30.88;;;12.75;;
55218;SDS011;65463;43.864;20.136;2024-01-11T04:14:24;50.63;;;21.23;;
55218;SDS011;65463;43.864;20.136;2024-01-11T04:16:53;47.20;;;21.23;;
55218;SDS011;65463;43.864;20.136;2024-01-11T04:19:19;49.85;;;22.08;;
55218;SDS011;65463;43.864;20.136;2024-01-11T04:21:46;48.95;;;21.60;;
55218;SDS011;65463;43.864;20.136;2024-01-11T04:24:12;48.72;;;21.02;;
55218;SDS011;65463;43.864;20.136;2024-01-11T04:26:38;51.65;;;20.88;;
55218;SDS011;65463;43.864;20.136;2024-01-11T04:29:04;43.70;;;20.33;;
55218;SDS011;65463;43.864;20.136;2024-01-11T04:31:30;43.55;;;19.60;;
55218;SDS011;65463;43.864;20.136;2024-01-11T04:33:57;40.50;;;18.50;;
55218;SDS011;65463;43.864;20.136;2024-01-11T04:36:23;36.72;;;16.55;;
55218;SDS011;65463;43.864;20.136;2024-01-11T04:38:49;29.80;;;13.88;;
55218;SDS011;65463;43.864;20.136;2024-01-11T04:41:15;26.33;;;12.38;;
55218;SDS011;65463;43.864;20.136;2024-01-11T04:43:42;24.17;;;11.93;;
55218;SDS011;65463;43.864;20.136;2024-01-11T04:46:14;24.00;;;11.00;;
55218;SDS011;65463;43.864;20.136;2024-01-11T04:48:41;21.80;;;10.13;;
55218;SDS011;65463;43.864;20.136;2024-01-11T04:51:07;22.20;;;10.15;;
55218;SDS011;65463;43.864;20.136;2024-01-11T04:53:40;18.15;;;8.60;;
55218;SDS011;65463;43.864;20.136;2024-01-11T04:56:07;16.63;;;8.35;;
55218;SDS011;65463;43.864;20.136;2024-01-11T04:58:34;16.23;;;8.13;;
55218;SDS011;65463;43.864;20.136;2024-01-11T05:01:00;18.33;;;8.32;;
55218;SDS011;65463;43.864;20.136;2024-01-11T05:03:27;16.63;;;7.82;;
55218;SDS011;65463;43.864;20.136;2024-01-11T05:05:53;17.67;;;7.63;;
55218;SDS011;65463;43.864;20.136;2024-01-11T05:08:20;16.90;;;8.00;;
55218;SDS011;65463;43.864;20.136;2024-01-11T05:10:46;15.10;;;7.55;;
55218;SDS011;65463;43.864;20.136;2024-01-11T05:13:12;14.98;;;7.05;;
55218;SDS011;65463;43.864;20.136;2024-01-11T05:15:38;18.08;;;8.43;;
55218;SDS011;65463;43.864;20.136;2024-01-11T05:18:04;20.25;;;9.25;;
55218;SDS011;65463;43.864;20.136;2024-01-11T05:20:30;20.17;;;8.27;;
55218;SDS011;65463;43.864;20.136;2024-01-11T05:23:02;18.85;;;9.00;;
55218;SDS011;65463;43.864;20.136;2024-01-11T05:25:28;18.83;;;8.95;;
55218;SDS011;65463;43.864;20.136;2024-01-11T05:27:56;18.40;;;9.27;;
55218;SDS011;65463;43.864;20.136;2024-01-11T05:30:22;19.20;;;8.93;;
55218;SDS011;65463;43.864;20.136;2024-01-11T05:32:48;25.35;;;11.10;;
55218;SDS011;65463;43.864;20.136;2024-01-11T05:35:15;30.08;;;14.48;;
55218;SDS011;65463;43.864;20.136;2024-01-11T05:37:41;32.40;;;15.65;;
55218;SDS011;65463;43.864;20.136;2024-01-11T05:40:07;32.53;;;15.57;;
55218;SDS011;65463;43.864;20.136;2024-01-11T05:42:34;38.25;;;15.82;;
55218;SDS011;65463;43.864;20.136;2024-01-11T05:45:00;33.30;;;16.17;;
55218;SDS011;65463;43.864;20.136;2024-01-11T05:47:26;35.38;;;16.70;;
55218;SDS011;65463;43.864;20.136;2024-01-11T05:49:52;36.33;;;16.92;;
55218;SDS011;65463;43.864;20.136;2024-01-11T05:52:19;35.33;;;16.83;;
55218;SDS011;65463;43.864;20.136;2024-01-11T05:54:45;36.70;;;16.35;;
55218;SDS011;65463;43.864;20.136;2024-01-11T05:57:12;39.65;;;17.20;;
55218;SDS011;65463;43.864;20.136;2024-01-11T05:59:43;32.83;;;14.93;;
55218;SDS011;65463;43.864;20.136;2024-01-11T06:02:09;33.75;;;15.73;;
55218;SDS011;65463;43.864;20.136;2024-01-11T06:04:36;40.47;;;18.27;;
55218;SDS011;65463;43.864;20.136;2024-01-11T06:07:02;35.97;;;16.38;;
55218;SDS011;65463;43.864;20.136;2024-01-11T06:09:28;37.28;;;16.88;;
55218;SDS011;65463;43.864;20.136;2024-01-11T06:11:54;37.05;;;16.52;;
55218;SDS011;65463;43.864;20.136;2024-01-11T06:14:24;39.20;;;17.00;;
55218;SDS011;65463;43.864;20.136;2024-01-11T06:16:50;36.65;;;15.73;;
55218;SDS011;65463;43.864;20.136;2024-01-11T06:19:17;41.10;;;16.85;;
55218;SDS011;65463;43.864;20.136;2024-01-11T06:21:46;37.80;;;16.23;;
55218;SDS011;65463;43.864;20.136;2024-01-11T06:24:12;42.23;;;17.30;;
55218;SDS011;65463;43.864;20.136;2024-01-11T06:26:38;46.33;;;18.20;;
55218;SDS011;65463;43.864;20.136;2024-01-11T06:29:05;48.90;;;18.60;;
55218;SDS011;65463;43.864;20.136;2024-01-11T06:31:31;37.55;;;15.32;;
55218;SDS011;65463;43.864;20.136;2024-01-11T06:33:57;35.45;;;15.30;;
55218;SDS011;65463;43.864;20.136;2024-01-11T06:36:23;32.75;;;14.75;;
55218;SDS011;65463;43.864;20.136;2024-01-11T06:38:50;36.58;;;15.88;;
55218;SDS011;65463;43.864;20.136;2024-01-11T06:41:16;35.83;;;15.10;;
55218;SDS011;65463;43.864;20.136;2024-01-11T06:43:42;37.03;;;16.20;;
55218;SDS011;65463;43.864;20.136;2024-01-11T06:46:08;50.28;;;22.35;;
55218;SDS011;65463;43.864;20.136;2024-01-11T06:48:35;37.08;;;16.50;;
55218;SDS011;65463;43.864;20.136;2024-01-11T06:51:04;33.88;;;13.88;;
55218;SDS011;65463;43.864;20.136;2024-01-11T06:53:30;31.27;;;13.82;;
55218;SDS011;65463;43.864;20.136;2024-01-11T06:55:57;33.08;;;14.95;;
55218;SDS011;65463;43.864;20.136;2024-01-11T06:58:28;32.13;;;14.98;;
55218;SDS011;65463;43.864;20.136;2024-01-11T07:00:54;37.53;;;15.57;;
55218;SDS011;65463;43.864;20.136;2024-01-11T07:03:20;41.38;;;16.65;;
55218;SDS011;65463;43.864;20.136;2024-01-11T07:05:46;44.50;;;18.67;;
55218;SDS011;65463;43.864;20.136;2024-01-11T07:08:13;49.35;;;19.77;;
55218;SDS011;65463;43.864;20.136;2024-01-11T07:10:39;67.88;;;22.75;;
55218;SDS011;65463;43.864;20.136;2024-01-11T07:13:05;43.13;;;16.52;;
55218;SDS011;65463;43.864;20.136;2024-01-11T07:15:31;36.13;;;14.60;;
55218;SDS011;65463;43.864;20.136;2024-01-11T07:18:00;58.45;;;20.98;;
55218;SDS011;65463;43.864;20.136;2024-01-11T07:20:26;54.35;;;19.77;;
55218;SDS011;65463;43.864;20.136;2024-01-11T07:22:53;44.55;;;18.25;;
55218;SDS011;65463;43.864;20.136;2024-01-11T07:25:19;39.45;;;17.00;;
55218;SDS011;65463;43.864;20.136;2024-01-11T07:27:45;55.55;;;23.45;;
55218;SDS011;65463;43.864;20.136;2024-01-11T07:30:11;43.85;;;18.40;;
55218;SDS011;65463;43.864;20.136;2024-01-11T07:32:38;35.25;;;14.40;;
55218;SDS011;65463;43.864;20.136;2024-01-11T07:35:05;34.20;;;14.60;;
55218;SDS011;65463;43.864;20.136;2024-01-11T07:37:32;45.10;;;18.85;;
55218;SDS011;65463;43.864;20.136;2024-01-11T07:39:58;42.17;;;17.55;;
55218;SDS011;65463;43.864;20.136;2024-01-11T07:42:24;40.60;;;16.02;;
55218;SDS011;65463;43.864;20.136;2024-01-11T07:44:50;33.75;;;14.77;;
55218;SDS011;65463;43.864;20.136;2024-01-11T07:47:16;34.30;;;14.77;;
55218;SDS011;65463;43.864;20.136;2024-01-11T07:49:43;35.72;;;15.70;;
55218;SDS011;65463;43.864;20.136;2024-01-11T07:52:09;37.47;;;16.15;;
55218;SDS011;65463;43.864;20.136;2024-01-11T07:54:35;40.85;;;18.33;;
55218;SDS011;65463;43.864;20.136;2024-01-11T07:57:01;36.63;;;16.42;;
55218;SDS011;65463;43.864;20.136;2024-01-11T07:59:28;40.58;;;18.30;;
55218;SDS011;65463;43.864;20.136;2024-01-11T08:01:54;44.33;;;19.08;;
55218;SDS011;65463;43.864;20.136;2024-01-11T08:04:20;45.75;;;21.42;;
55218;SDS011;65463;43.864;20.136;2024-01-11T08:06:47;37.40;;;16.50;;
55218;SDS011;65463;43.864;20.136;2024-01-11T08:09:13;38.95;;;17.52;;
55218;SDS011;65463;43.864;20.136;2024-01-11T08:11:40;33.40;;;15.90;;
55218;SDS011;65463;43.864;20.136;2024-01-11T08:14:07;35.83;;;15.60;;
55218;SDS011;65463;43.864;20.136;2024-01-11T08:16:33;34.85;;;16.38;;
55218;SDS011;65463;43.864;20.136;2024-01-11T08:18:59;37.20;;;16.55;;
55218;SDS011;65463;43.864;20.136;2024-01-11T08:21:31;39.20;;;17.48;;
55218;SDS011;65463;43.864;20.136;2024-01-11T08:23:57;41.45;;;19.00;;
55218;SDS011;65463;43.864;20.136;2024-01-11T08:26:23;31.02;;;14.43;;
55218;SDS011;65463;43.864;20.136;2024-01-11T08:28:49;34.95;;;16.33;;
55218;SDS011;65463;43.864;20.136;2024-01-11T08:31:18;29.55;;;13.40;;
55218;SDS011;65463;43.864;20.136;2024-01-11T08:33:45;27.23;;;13.02;;
55218;SDS011;65463;43.864;20.136;2024-01-11T08:36:11;34.17;;;13.98;;
55218;SDS011;65463;43.864;20.136;2024-01-11T08:38:37;25.52;;;11.82;;
55218;SDS011;65463;43.864;20.136;2024-01-11T08:41:03;26.20;;;11.98;;
55218;SDS011;65463;43.864;20.136;2024-01-11T08:43:35;26.67;;;11.93;;
55218;SDS011;65463;43.864;20.136;2024-01-11T08:46:01;23.75;;;11.00;;
55218;SDS011;65463;43.864;20.136;2024-01-11T08:48:27;26.08;;;12.25;;
55218;SDS011;65463;43.864;20.136;2024-01-11T08:50:56;27.02;;;11.65;;
55218;SDS011;65463;43.864;20.136;2024-01-11T08:53:22;25.15;;;12.38;;
55218;SDS011;65463;43.864;20.136;2024-01-11T08:55:53;29.60;;;13.35;;
55218;SDS011;65463;43.864;20.136;2024-01-11T08:58:19;31.33;;;14.00;;
55218;SDS011;65463;43.864;20.136;2024-01-11T09:00:45;29.85;;;13.82;;
55218;SDS011;65463;43.864;20.136;2024-01-11T09:03:16;30.63;;;14.43;;
55218;SDS011;65463;43.864;20.136;2024-01-11T09:05:42;33.20;;;13.57;;
55218;SDS011;65463;43.864;20.136;2024-01-11T09:08:08;26.75;;;13.00;;
55218;SDS011;65463;43.864;20.136;2024-01-11T09:10:35;34.75;;;16.95;;
55218;SDS011;65463;43.864;20.136;2024-01-11T09:13:01;36.13;;;17.30;;
55218;SDS011;65463;43.864;20.136;2024-01-11T09:15:29;33.80;;;14.73;;
55218;SDS011;65463;43.864;20.136;2024-01-11T09:17:56;31.83;;;14.45;;
55218;SDS011;65463;43.864;20.136;2024-01-11T09:20:22;30.35;;;14.23;;
55218;SDS011;65463;43.864;20.136;2024-01-11T09:22:48;33.60;;;14.50;;
55218;SDS011;65463;43.864;20.136;2024-01-11T09:25:14;33.05;;;15.02;;
55218;SDS011;65463;43.864;20.136;2024-01-11T09:27:43;30.30;;;14.77;;
55218;SDS011;65463;43.864;20.136;2024-01-11T09:30:09;32.75;;;14.48;;
55218;SDS011;65463;43.864;20.136;2024-01-11T09:32:35;30.85;;;13.85;;
55218;SDS011;65463;43.864;20.136;2024-01-11T09:35:02;28.30;;;13.02;;
55218;SDS011;65463;43.864;20.136;2024-01-11T09:37:34;27.83;;;12.65;;
55218;SDS011;65463;43.864;20.136;2024-01-11T09:40:05;26.90;;;12.73;;
55218;SDS011;65463;43.864;20.136;2024-01-11T09:42:39;28.15;;;12.52;;
55218;SDS011;65463;43.864;20.136;2024-01-11T09:45:15;26.40;;;12.90;;
55218;SDS011;65463;43.864;20.136;2024-01-11T09:47:42;30.08;;;13.23;;
55218;SDS011;65463;43.864;20.136;2024-01-11T09:50:16;28.33;;;12.98;;
55218;SDS011;65463;43.864;20.136;2024-01-11T09:52:46;30.40;;;13.25;;
55218;SDS011;65463;43.864;20.136;2024-01-11T09:55:14;27.60;;;12.50;;
55218;SDS011;65463;43.864;20.136;2024-01-11T09:57:43;29.20;;;13.38;;
55218;SDS011;65463;43.864;20.136;2024-01-11T10:00:12;38.90;;;14.85;;
55218;SDS011;65463;43.864;20.136;2024-01-11T10:02:39;31.65;;;13.98;;
55218;SDS011;65463;43.864;20.136;2024-01-11T10:05:05;26.35;;;12.77;;
55218;SDS011;65463;43.864;20.136;2024-01-11T10:07:32;29.38;;;13.65;;
55218;SDS011;65463;43.864;20.136;2024-01-11T10:09:58;29.23;;;13.43;;
55218;SDS011;65463;43.864;20.136;2024-01-11T10:12:26;32.88;;;15.00;;
55218;SDS011;65463;43.864;20.136;2024-01-11T10:14:53;31.58;;;14.57;;
55218;SDS011;65463;43.864;20.136;2024-01-11T10:17:20;31.70;;;15.00;;
55218;SDS011;65463;43.864;20.136;2024-01-11T10:19:50;32.38;;;14.65;;
55218;SDS011;65463;43.864;20.136;2024-01-11T10:22:17;31.92;;;15.18;;
55218;SDS011;65463;43.864;20.136;2024-01-11T10:24:44;33.70;;;16.15;;
55218;SDS011;65463;43.864;20.136;2024-01-11T10:27:12;32.08;;;15.13;;
55218;SDS011;65463;43.864;20.136;2024-01-11T10:29:38;27.15;;;14.60;;
55218;SDS011;65463;43.864;20.136;2024-01-11T10:32:05;28.67;;;15.80;;
55218;SDS011;65463;43.864;20.136;2024-01-11T10:34:31;31.92;;;16.42;;
55218;SDS011;65463;43.864;20.136;2024-01-11T10:36:58;39.55;;;15.80;;
55218;SDS011;65463;43.864;20.136;2024-01-11T10:39:25;49.00;;;16.25;;
55218;SDS011;65463;43.864;20.136;2024-01-11T10:42:03;30.02;;;16.05;;
55218;SDS011;65463;43.864;20.136;2024-01-11T10:44:30;115.57;;;19.83;;
55218;SDS011;65463;43.864;20.136;2024-01-11T10:46:59;31.73;;;15.20;;
55218;SDS011;65463;43.864;20.136;2024-01-11T10:49:25;28.83;;;15.15;;
55218;SDS011;65463;43.864;20.136;2024-01-11T10:52:03;26.67;;;15.27;;
55218;SDS011;65463;43.864;20.136;2024-01-11T10:54:31;29.50;;;16.83;;
55218;SDS011;65463;43.864;20.136;2024-01-11T10:57:00;25.00;;;14.63;;
55218;SDS011;65463;43.864;20.136;2024-01-11T10:59:29;30.90;;;16.95;;
55218;SDS011;65463;43.864;20.136;2024-01-11T11:01:57;24.13;;;15.55;;
55218;SDS011;65463;43.864;20.136;2024-01-11T11:04:24;26.95;;;15.75;;
55218;SDS011;65463;43.864;20.136;2024-01-11T11:06:56;33.60;;;17.33;;
55218;SDS011;65463;43.864;20.136;2024-01-11T11:09:23;30.02;;;16.90;;
55218;SDS011;65463;43.864;20.136;2024-01-11T11:11:50;34.55;;;19.52;;
55218;SDS011;65463;43.864;20.136;2024-01-11T11:14:22;36.72;;;22.48;;
55218;SDS011;65463;43.864;20.136;2024-01-11T11:16:48;38.85;;;23.08;;
55218;SDS011;65463;43.864;20.136;2024-01-11T11:19:14;28.13;;;17.70;;
55218;SDS011;65463;43.864;20.136;2024-01-11T11:21:44;26.40;;;16.45;;
55218;SDS011;65463;43.864;20.136;2024-01-11T11:24:12;28.75;;;16.23;;
55218;SDS011;65463;43.864;20.136;2024-01-11T11:26:38;31.35;;;17.02;;
55218;SDS011;65463;43.864;20.136;2024-01-11T11:29:05;26.48;;;16.35;;
55218;SDS011;65463;43.864;20.136;2024-01-11T11:31:38;33.90;;;19.63;;
55218;SDS011;65463;43.864;20.136;2024-01-11T11:34:11;24.63;;;16.57;;
55218;SDS011;65463;43.864;20.136;2024-01-11T11:36:40;28.02;;;16.83;;
55218;SDS011;65463;43.864;20.136;2024-01-11T11:39:10;30.15;;;17.88;;
55218;SDS011;65463;43.864;20.136;2024-01-11T11:41:41;26.73;;;17.17;;
55218;SDS011;65463;43.864;20.136;2024-01-11T11:44:11;33.55;;;19.42;;
55218;SDS011;65463;43.864;20.136;2024-01-11T11:46:39;28.15;;;18.05;;
55218;SDS011;65463;43.864;20.136;2024-01-11T11:49:05;30.92;;;20.48;;
55218;SDS011;65463;43.864;20.136;2024-01-11T11:51:32;30.73;;;19.63;;
55218;SDS011;65463;43.864;20.136;2024-01-11T11:53:58;38.72;;;21.42;;
55218;SDS011;65463;43.864;20.136;2024-01-11T11:56:25;30.00;;;18.35;;
55218;SDS011;65463;43.864;20.136;2024-01-11T11:58:52;28.05;;;18.23;;
55218;SDS011;65463;43.864;20.136;2024-01-11T12:01:20;31.58;;;19.42;;
55218;SDS011;65463;43.864;20.136;2024-01-11T12:03:46;31.55;;;20.83;;
55218;SDS011;65463;43.864;20.136;2024-01-11T12:06:19;33.15;;;21.23;;
55218;SDS011;65463;43.864;20.136;2024-01-11T12:08:46;35.13;;;20.73;;
55218;SDS011;65463;43.864;20.136;2024-01-11T12:11:30;32.75;;;20.92;;
55218;SDS011;65463;43.864;20.136;2024-01-11T12:13:57;28.50;;;19.60;;
55218;SDS011;65463;43.864;20.136;2024-01-11T12:16:24;65.60;;;22.33;;
55218;SDS011;65463;43.864;20.136;2024-01-11T12:18:50;31.90;;;20.90;;
55218;SDS011;65463;43.864;20.136;2024-01-11T12:21:16;35.25;;;22.52;;
55218;SDS011;65463;43.864;20.136;2024-01-11T12:23:42;29.23;;;19.58;;
55218;SDS011;65463;43.864;20.136;2024-01-11T12:26:09;27.23;;;18.58;;
55218;SDS011;65463;43.864;20.136;2024-01-11T12:28:38;32.47;;;19.88;;
55218;SDS011;65463;43.864;20.136;2024-01-11T12:31:07;29.88;;;19.95;;
55218;SDS011;65463;43.864;20.136;2024-01-11T12:33:39;30.42;;;20.85;;
55218;SDS011;65463;43.864;20.136;2024-01-11T12:36:06;30.60;;;20.95;;
55218;SDS011;65463;43.864;20.136;2024-01-11T12:38:34;37.80;;;25.45;;
55218;SDS011;65463;43.864;20.136;2024-01-11T12:41:00;32.58;;;20.73;;
55218;SDS011;65463;43.864;20.136;2024-01-11T12:43:29;30.10;;;20.73;;
55218;SDS011;65463;43.864;20.136;2024-01-11T12:45:55;33.60;;;21.65;;
55218;SDS011;65463;43.864;20.136;2024-01-11T12:48:22;34.10;;;20.13;;
55218;SDS011;65463;43.864;20.136;2024-01-11T12:50:49;34.63;;;21.05;;
55218;SDS011;65463;43.864;20.136;2024-01-11T12:53:15;33.83;;;21.02;;
55218;SDS011;65463;43.864;20.136;2024-01-11T12:55:47;37.72;;;21.55;;
55218;SDS011;65463;43.864;20.136;2024-01-11T12:58:14;33.70;;;21.70;;
55218;SDS011;65463;43.864;20.136;2024-01-11T13:00:45;39.38;;;22.80;;
55218;SDS011;65463;43.864;20.136;2024-01-11T13:03:11;36.80;;;21.92;;
55218;SDS011;65463;43.864;20.136;2024-01-11T13:05:38;34.55;;;21.00;;
55218;SDS011;65463;43.864;20.136;2024-01-11T13:08:07;39.47;;;23.23;;
55218;SDS011;65463;43.864;20.136;2024-01-11T13:10:35;39.05;;;22.00;;
55218;SDS011;65463;43.864;20.136;2024-01-11T13:13:01;33.97;;;21.00;;
55218;SDS011;65463;43.864;20.136;2024-01-11T13:15:27;95.72;;;61.35;;
55218;SDS011;65463;43.864;20.136;2024-01-11T13:17:57;35.40;;;22.50;;
55218;SDS011;65463;43.864;20.136;2024-01-11T13:20:28;39.42;;;24.75;;
55218;SDS011;65463;43.864;20.136;2024-01-11T13:25:39;37.67;;;20.77;;
55218;SDS011;65463;43.864;20.136;2024-01-11T13:28:06;33.90;;;21.15;;
55218;SDS011;65463;43.864;20.136;2024-01-11T13:30:41;38.20;;;20.80;;
55218;SDS011;65463;43.864;20.136;2024-01-11T13:33:07;36.65;;;21.27;;
55218;SDS011;65463;43.864;20.136;2024-01-11T13:35:37;40.47;;;21.55;;
55218;SDS011;65463;43.864;20.136;2024-01-11T13:38:04;39.25;;;22.60;;
55218;SDS011;65463;43.864;20.136;2024-01-11T13:40:30;42.63;;;22.30;;
55218;SDS011;65463;43.864;20.136;2024-01-11T13:42:56;41.15;;;23.23;;
55218;SDS011;65463;43.864;20.136;2024-01-11T13:45:26;40.20;;;20.90;;
55218;SDS011;65463;43.864;20.136;2024-01-11T13:47:55;41.95;;;22.65;;
55218;SDS011;65463;43.864;20.136;2024-01-11T13:50:24;43.95;;;24.25;;
55218;SDS011;65463;43.864;20.136;2024-01-11T13:52:51;42.88;;;22.92;;
55218;SDS011;65463;43.864;20.136;2024-01-11T13:55:17;44.17;;;21.20;;
55218;SDS011;65463;43.864;20.136;2024-01-11T13:57:46;47.03;;;25.98;;
55218;SDS011;65463;43.864;20.136;2024-01-11T14:00:12;86.22;;;43.75;;
55218;SDS011;65463;43.864;20.136;2024-01-11T14:02:38;48.42;;;24.33;;
55218;SDS011;65463;43.864;20.136;2024-01-11T14:05:06;77.40;;;39.58;;
55218;SDS011;65463;43.864;20.136;2024-01-11T14:07:36;66.38;;;31.17;;
55218;SDS011;65463;43.864;20.136;2024-01-11T14:10:03;50.03;;;24.55;;
55218;SDS011;65463;43.864;20.136;2024-01-11T14:12:36;47.92;;;24.88;;